createdAt,value
2023-01-30T00:01:19.340Z,12.48
2023-01-30T00:03:48.990Z,11.35
2023-01-30T00:06:16.756Z,12.60
2023-01-30T00:08:45.237Z,11.85
2023-01-30T00:11:14.870Z,11.68
2023-01-30T00:13:43.345Z,11.70
2023-01-30T00:16:11.293Z,11.95
2023-01-30T00:18:40.297Z,11.40
2023-01-30T00:21:12.333Z,11.73
2023-01-30T00:23:40.440Z,11.53
2023-01-30T00:26:09.524Z,10.75
2023-01-30T00:28:38.071Z,12.52
2023-01-30T00:31:06.343Z,10.75
2023-01-30T00:33:34.195Z,10.95
2023-01-30T00:36:03.016Z,10.20
2023-01-30T00:38:32.172Z,10.90
2023-01-30T00:40:59.963Z,9.68
2023-01-30T00:43:45.606Z,10.23
2023-01-30T00:46:39.224Z,10.23
2023-01-30T00:49:07.026Z,10.25
2023-01-30T00:51:34.783Z,10.20
2023-01-30T00:54:04.007Z,9.00
2023-01-30T00:56:31.803Z,8.10
2023-01-30T00:58:59.628Z,8.05
2023-01-30T01:01:27.652Z,7.88
2023-01-30T01:03:55.436Z,7.82
2023-01-30T01:06:23.258Z,7.70
2023-01-30T01:08:51.009Z,7.68
2023-01-30T01:11:25.151Z,8.40
2023-01-30T01:13:54.220Z,8.20
2023-01-30T01:16:22.715Z,7.75
2023-01-30T01:18:50.997Z,8.15
2023-01-30T01:21:20.646Z,7.90
2023-01-30T01:23:51.403Z,7.57
2023-01-30T01:26:20.711Z,8.45
2023-01-30T01:28:49.063Z,8.57
2023-01-30T01:31:18.045Z,9.73
2023-01-30T01:33:45.869Z,8.43
2023-01-30T01:36:24.370Z,8.60
2023-01-30T01:39:01.316Z,8.25
2023-01-30T01:41:29.929Z,8.45
2023-01-30T01:44:03.156Z,8.52
2023-01-30T01:46:34.249Z,8.20
2023-01-30T01:49:06.979Z,8.75
2023-01-30T01:51:37.504Z,8.25
2023-01-30T01:54:10.861Z,8.25
2023-01-30T01:56:44.986Z,9.00
2023-01-30T01:59:19.116Z,8.95
2023-01-30T02:01:47.007Z,9.73
2023-01-30T02:04:35.190Z,9.70
2023-01-30T02:07:03.427Z,9.43
2023-01-30T02:09:31.492Z,9.90
2023-01-30T02:12:04.660Z,10.13
2023-01-30T02:14:34.293Z,10.02
2023-01-30T02:17:02.042Z,10.63
2023-01-30T02:19:38.033Z,10.38
2023-01-30T02:22:32.920Z,10.98
2023-01-30T02:25:30.252Z,10.63
2023-01-30T02:28:27.827Z,10.95
2023-01-30T02:31:10.637Z,11.00
2023-01-30T02:33:46.800Z,9.07
2023-01-30T02:36:21.137Z,10.32
2023-01-30T02:38:55.082Z,11.20
2023-01-30T02:41:31.283Z,10.32
2023-01-30T02:44:05.762Z,10.23
2023-01-30T02:46:42.088Z,10.25
2023-01-30T02:49:15.605Z,10.43
2023-01-30T02:51:45.021Z,10.10
2023-01-30T02:54:13.882Z,10.38
2023-01-30T02:56:50.125Z,10.10
2023-01-30T02:59:22.433Z,10.23
2023-01-30T03:02:27.563Z,10.40
2023-01-30T03:05:20.362Z,9.48
2023-01-30T03:07:56.608Z,9.80
2023-01-30T03:10:39.109Z,9.85
2023-01-30T03:13:14.401Z,9.45
2023-01-30T03:15:47.369Z,11.07
2023-01-30T03:20:45.741Z,9.93
2023-01-30T03:23:14.051Z,10.88
2023-01-30T03:25:44.507Z,10.60
2023-01-30T03:28:15.693Z,10.82
2023-01-30T03:30:43.421Z,10.70
2023-01-30T03:33:11.347Z,10.93
2023-01-30T03:35:41.295Z,9.82
2023-01-30T03:38:09.680Z,9.88
2023-01-30T03:40:37.580Z,11.07
2023-01-30T03:43:05.457Z,10.45
2023-01-30T03:45:33.143Z,10.88
2023-01-30T03:48:00.917Z,10.25
2023-01-30T03:50:29.447Z,10.35
2023-01-30T03:52:58.524Z,9.80
2023-01-30T03:55:26.447Z,11.20
2023-01-30T03:57:56.427Z,10.40
2023-01-30T04:00:24.460Z,9.52
2023-01-30T04:02:53.783Z,10.32
2023-01-30T04:05:21.878Z,9.93
2023-01-30T04:07:49.617Z,9.88
2023-01-30T04:10:20.078Z,10.55
2023-01-30T04:12:47.907Z,9.55
2023-01-30T04:15:16.104Z,10.23
2023-01-30T04:17:44.279Z,10.18
2023-01-30T04:20:12.839Z,11.18
2023-01-30T04:22:40.670Z,11.45
2023-01-30T04:25:09.103Z,10.25
2023-01-30T04:27:38.281Z,11.05
2023-01-30T04:30:07.126Z,11.35
2023-01-30T04:32:34.911Z,11.48
2023-01-30T04:35:02.612Z,11.13
2023-01-30T04:37:30.318Z,10.68
2023-01-30T04:39:58.050Z,9.90
2023-01-30T04:42:25.848Z,11.02
2023-01-30T04:44:54.987Z,11.50
2023-01-30T04:47:22.696Z,10.45
2023-01-30T04:49:50.431Z,11.63
2023-01-30T04:52:18.185Z,10.77
2023-01-30T04:54:46.012Z,11.23
2023-01-30T04:57:13.750Z,11.23
2023-01-30T04:59:42.272Z,10.77
2023-01-30T05:02:11.460Z,10.65
2023-01-30T05:04:39.177Z,10.82
2023-01-30T05:07:06.886Z,10.65
2023-01-30T05:09:34.604Z,10.55
2023-01-30T05:12:02.353Z,11.38
2023-01-30T05:14:30.088Z,10.63
2023-01-30T05:16:58.201Z,11.43
2023-01-30T05:19:27.287Z,12.30
2023-01-30T05:21:54.922Z,11.73
2023-01-30T05:24:22.793Z,10.88
2023-01-30T05:26:50.452Z,10.15
2023-01-30T05:29:18.234Z,11.80
2023-01-30T05:31:45.929Z,11.13
2023-01-30T05:34:13.805Z,11.05
2023-01-30T05:36:42.972Z,12.38
2023-01-30T05:39:10.736Z,11.32
2023-01-30T05:41:38.454Z,11.35
2023-01-30T05:44:06.780Z,10.98
2023-01-30T05:46:34.518Z,10.40
2023-01-30T05:49:04.133Z,10.40
2023-01-30T05:51:32.200Z,10.65
2023-01-30T05:54:01.282Z,10.73
2023-01-30T05:56:30.442Z,10.60
2023-01-30T05:58:58.234Z,10.23
2023-01-30T06:01:26.513Z,10.55
2023-01-30T06:03:54.819Z,9.88
2023-01-30T06:06:23.347Z,10.38
2023-01-30T06:08:54.562Z,10.02
2023-01-30T06:11:24.415Z,10.73
2023-01-30T06:13:52.219Z,13.77
2023-01-30T06:16:20.521Z,13.40
2023-01-30T06:18:48.575Z,10.50
2023-01-30T06:21:17.391Z,6.57
2023-01-30T06:23:46.359Z,7.03
2023-01-30T06:26:14.160Z,6.40
2023-01-30T06:28:43.455Z,6.15
2023-01-30T06:31:11.594Z,9.20
2023-01-30T06:33:39.432Z,7.88
2023-01-30T06:36:07.929Z,7.15
2023-01-30T06:38:35.740Z,8.93
2023-01-30T06:41:03.597Z,9.30
2023-01-30T06:43:31.429Z,9.15
2023-01-30T06:46:01.438Z,8.57
2023-01-30T06:48:29.164Z,7.93
2023-01-30T06:50:56.959Z,6.35
2023-01-30T06:53:30.329Z,6.18
2023-01-30T06:55:58.327Z,6.53
2023-01-30T06:58:26.240Z,6.65
2023-01-30T07:00:54.038Z,5.85
2023-01-30T07:03:23.285Z,5.97
2023-01-30T07:05:51.021Z,5.95
2023-01-30T07:08:18.708Z,7.22
2023-01-30T07:10:46.991Z,8.00
2023-01-30T07:13:15.036Z,7.63
2023-01-30T07:15:42.975Z,7.28
2023-01-30T07:18:10.685Z,7.82
2023-01-30T07:20:40.238Z,6.40
2023-01-30T07:23:07.965Z,7.13
2023-01-30T07:25:36.015Z,8.48
2023-01-30T07:28:04.223Z,7.70
2023-01-30T07:30:33.663Z,6.90
2023-01-30T07:33:02.056Z,6.18
2023-01-30T07:35:31.897Z,6.72
2023-01-30T07:38:01.000Z,6.65
2023-01-30T07:40:29.121Z,6.45
2023-01-30T07:42:58.400Z,6.90
2023-01-30T07:45:26.665Z,6.53
2023-01-30T07:47:55.107Z,6.97
2023-01-30T07:50:22.847Z,6.38
2023-01-30T07:52:50.603Z,6.95
2023-01-30T07:55:20.047Z,6.50
2023-01-30T07:57:47.999Z,6.60
2023-01-30T08:00:17.001Z,6.35
2023-01-30T08:02:44.930Z,6.38
2023-01-30T08:05:12.729Z,6.00
2023-01-30T08:07:40.710Z,6.57
2023-01-30T08:10:11.915Z,6.00
2023-01-30T08:12:42.566Z,6.43
2023-01-30T08:15:11.576Z,6.30
2023-01-30T08:17:39.304Z,6.25
2023-01-30T08:20:08.526Z,6.20
2023-01-30T08:22:36.320Z,5.88
2023-01-30T08:25:04.330Z,5.70
2023-01-30T08:27:32.066Z,6.18
2023-01-30T08:30:01.164Z,5.40
2023-01-30T08:32:28.843Z,4.88
2023-01-30T08:34:56.733Z,4.95
2023-01-30T08:37:24.664Z,4.97
2023-01-30T08:39:52.413Z,5.38
2023-01-30T08:42:20.161Z,4.88
2023-01-30T08:44:47.904Z,5.30
2023-01-30T08:47:17.090Z,4.70
2023-01-30T08:49:44.928Z,4.63
2023-01-30T08:52:12.732Z,4.15
2023-01-30T08:54:40.520Z,4.85
2023-01-30T08:57:08.359Z,4.55
2023-01-30T08:59:36.111Z,4.40
2023-01-30T09:02:04.167Z,4.55
2023-01-30T09:04:33.634Z,3.85
2023-01-30T09:07:01.568Z,3.47
2023-01-30T09:09:30.105Z,3.88
2023-01-30T09:11:58.024Z,4.22
2023-01-30T09:14:25.967Z,4.40
2023-01-30T09:16:55.829Z,4.63
2023-01-30T09:19:23.950Z,4.15
2023-01-30T09:21:53.966Z,4.45
2023-01-30T09:24:26.326Z,3.72
2023-01-30T09:26:54.293Z,3.70
2023-01-30T09:29:22.739Z,4.07
2023-01-30T09:31:50.603Z,3.75
2023-01-30T09:34:18.453Z,4.75
2023-01-30T09:36:46.437Z,4.60
2023-01-30T09:39:15.611Z,4.28
2023-01-30T09:42:12.505Z,3.90
2023-01-30T09:45:00.103Z,3.30
2023-01-30T09:47:38.725Z,3.22
2023-01-30T09:50:24.108Z,3.63
2023-01-30T09:52:57.502Z,3.35
2023-01-30T09:55:29.298Z,2.92
2023-01-30T09:57:59.735Z,2.97
2023-01-30T10:00:34.101Z,3.03
2023-01-30T10:03:10.577Z,2.60
2023-01-30T10:05:44.771Z,2.72
2023-01-30T10:08:37.145Z,3.00
2023-01-30T10:11:15.578Z,3.03
2023-01-30T10:14:06.379Z,2.83
2023-01-30T10:16:39.114Z,2.88
2023-01-30T10:19:35.601Z,2.92
2023-01-30T10:22:17.616Z,2.65
2023-01-30T10:24:59.279Z,2.80
2023-01-30T10:27:31.675Z,2.70
2023-01-30T10:30:05.137Z,2.50
2023-01-30T10:32:40.136Z,2.60
2023-01-30T10:35:17.124Z,3.20
2023-01-30T10:37:52.662Z,2.88
2023-01-30T10:40:29.359Z,3.05
2023-01-30T10:43:05.159Z,2.72
2023-01-30T10:45:39.379Z,3.17
2023-01-30T10:48:43.969Z,2.60
2023-01-30T10:51:24.731Z,2.90
2023-01-30T10:53:57.275Z,3.60
2023-01-30T10:56:34.921Z,2.80
2023-01-30T10:59:13.414Z,3.40
2023-01-30T11:01:46.366Z,3.47
2023-01-30T11:06:48.673Z,2.65
2023-01-30T11:09:16.444Z,2.47
2023-01-30T11:11:50.229Z,2.67
2023-01-30T11:14:19.723Z,2.70
2023-01-30T11:16:49.298Z,2.50
2023-01-30T11:19:21.975Z,2.33
2023-01-30T11:21:52.109Z,3.03
2023-01-30T11:24:21.822Z,2.95
2023-01-30T11:26:50.617Z,2.90
2023-01-30T11:29:29.422Z,3.30
2023-01-30T11:32:01.904Z,2.92
2023-01-30T11:34:29.771Z,2.88
2023-01-30T11:37:13.858Z,2.88
2023-01-30T11:39:49.881Z,2.70
2023-01-30T11:42:20.758Z,3.03
2023-01-30T11:45:10.852Z,5.13
2023-01-30T11:47:57.342Z,3.50
2023-01-30T11:50:36.275Z,2.85
2023-01-30T11:53:18.623Z,2.45
2023-01-30T11:56:00.395Z,3.20
2023-01-30T11:58:32.923Z,2.80
2023-01-30T12:01:03.074Z,3.38
2023-01-30T12:03:31.434Z,5.47
2023-01-30T12:06:00.283Z,5.20
2023-01-30T12:08:41.841Z,3.13
2023-01-30T12:11:27.713Z,3.00
2023-01-30T12:14:00.976Z,3.20
2023-01-30T12:16:45.243Z,4.10
2023-01-30T12:19:27.020Z,3.00
2023-01-30T12:22:02.404Z,3.55
2023-01-30T12:24:37.577Z,3.67
2023-01-30T12:27:10.998Z,3.20
2023-01-30T12:29:52.201Z,3.60
2023-01-30T12:32:26.628Z,3.80
2023-01-30T12:34:54.455Z,3.42
2023-01-30T12:37:38.452Z,3.80
2023-01-30T12:40:16.001Z,3.15
2023-01-30T12:43:03.875Z,3.47
2023-01-30T12:45:34.668Z,3.05
2023-01-30T12:48:40.705Z,4.03
2023-01-30T12:51:28.633Z,5.18
2023-01-30T12:54:07.647Z,3.72
2023-01-30T12:56:58.112Z,3.90
2023-01-30T12:59:36.321Z,3.97
2023-01-30T13:02:26.899Z,3.75
2023-01-30T13:05:07.843Z,3.65
2023-01-30T13:07:47.424Z,3.35
2023-01-30T13:10:21.815Z,3.30
2023-01-30T13:12:59.325Z,3.50
2023-01-30T13:15:36.785Z,3.30
2023-01-30T13:18:14.739Z,3.45
2023-01-30T13:20:55.666Z,4.40
2023-01-30T13:23:30.689Z,3.80
2023-01-30T13:26:05.505Z,3.65
2023-01-30T13:28:38.420Z,3.40
2023-01-30T13:31:09.942Z,3.42
2023-01-30T13:33:43.703Z,3.55
2023-01-30T13:36:17.315Z,3.70
2023-01-30T13:38:55.528Z,3.80
2023-01-30T13:41:25.486Z,4.00
2023-01-30T13:43:55.585Z,3.65
2023-01-30T13:46:27.498Z,3.70
2023-01-30T13:49:05.601Z,3.23
2023-01-30T13:51:49.610Z,3.80
2023-01-30T13:54:41.157Z,3.58
2023-01-30T13:57:20.973Z,3.97
2023-01-30T14:00:21.982Z,3.35
2023-01-30T14:03:25.179Z,3.33
2023-01-30T14:06:14.532Z,3.40
2023-01-30T14:08:53.568Z,3.33
2023-01-30T14:11:37.036Z,3.30
2023-01-30T14:14:21.177Z,3.70
2023-01-30T14:16:51.839Z,3.35
2023-01-30T14:19:36.537Z,3.42
2023-01-30T14:22:19.727Z,3.83
2023-01-30T14:27:45.146Z,3.15
2023-01-30T14:30:47.664Z,3.10
2023-01-30T14:33:34.932Z,3.65
2023-01-30T14:36:37.109Z,3.70
2023-01-30T14:39:38.401Z,2.75
2023-01-30T14:42:25.458Z,3.45
2023-01-30T14:45:01.540Z,3.22
2023-01-30T14:47:34.055Z,3.35
2023-01-30T14:50:20.620Z,2.83
2023-01-30T14:52:50.349Z,3.30
2023-01-30T14:55:21.316Z,3.28
2023-01-30T14:57:58.981Z,3.55
2023-01-30T15:00:32.217Z,3.20
2023-01-30T15:03:02.875Z,3.78
2023-01-30T15:05:34.821Z,3.33
2023-01-30T15:08:08.947Z,3.47
2023-01-30T15:10:57.622Z,3.45
2023-01-30T15:13:51.020Z,4.82
2023-01-30T15:16:39.559Z,3.85
2023-01-30T15:19:27.458Z,3.60
2023-01-30T15:22:08.827Z,3.78
2023-01-30T15:24:56.996Z,4.10
2023-01-30T15:27:31.979Z,3.50
2023-01-30T15:30:19.364Z,3.80
2023-01-30T15:32:47.284Z,3.70
2023-01-30T15:35:25.536Z,3.67
2023-01-30T15:37:56.168Z,3.47
2023-01-30T15:40:26.529Z,4.65
2023-01-30T15:43:07.991Z,4.15
2023-01-30T15:45:49.062Z,3.65
2023-01-30T15:48:31.699Z,3.72
2023-01-30T15:51:01.254Z,3.42
2023-01-30T15:53:32.262Z,3.10
2023-01-30T15:56:01.854Z,3.13
2023-01-30T15:58:31.348Z,3.08
2023-01-30T16:01:01.987Z,3.30
2023-01-30T16:03:36.683Z,3.63
2023-01-30T16:06:05.378Z,4.15
2023-01-30T16:08:35.189Z,3.85
2023-01-30T16:11:03.487Z,4.00
2023-01-30T16:13:33.403Z,4.00
2023-01-30T16:16:07.376Z,3.50
2023-01-30T16:18:40.366Z,3.60
2023-01-30T16:23:39.830Z,3.45
2023-01-30T16:26:10.882Z,3.67
2023-01-30T16:28:38.681Z,3.78
2023-01-30T16:31:10.534Z,3.80
2023-01-30T16:33:39.409Z,4.15
2023-01-30T16:36:28.607Z,4.13
2023-01-30T16:38:56.983Z,4.20
2023-01-30T16:41:33.676Z,4.53
2023-01-30T16:44:18.741Z,3.60
2023-01-30T16:46:51.048Z,3.85
2023-01-30T16:49:23.815Z,4.13
2023-01-30T16:54:30.929Z,4.20
2023-01-30T16:57:02.051Z,4.63
2023-01-30T16:59:32.618Z,4.55
2023-01-30T17:02:03.739Z,4.50
2023-01-30T17:04:33.371Z,4.60
2023-01-30T17:07:04.298Z,5.75
2023-01-30T17:09:44.573Z,5.25
2023-01-30T17:12:48.369Z,8.32
2023-01-30T17:15:34.480Z,6.13
2023-01-30T17:18:04.314Z,7.03
2023-01-30T17:20:39.872Z,6.50
2023-01-30T17:23:10.749Z,6.95
2023-01-30T17:25:43.024Z,8.60
2023-01-30T17:28:16.959Z,7.32
2023-01-30T17:30:44.858Z,6.03
2023-01-30T17:33:13.972Z,5.85
2023-01-30T17:35:41.786Z,4.88
2023-01-30T17:38:11.893Z,4.90
2023-01-30T17:40:40.108Z,4.88
2023-01-30T17:43:09.608Z,4.72
2023-01-30T17:45:37.540Z,4.68
2023-01-30T17:48:05.877Z,4.65
2023-01-30T17:50:36.576Z,5.15
2023-01-30T17:53:04.811Z,5.38
2023-01-30T17:55:33.960Z,5.10
2023-01-30T17:58:02.319Z,5.32
2023-01-30T18:00:30.115Z,5.93
2023-01-30T18:02:57.986Z,5.88
2023-01-30T18:05:26.004Z,5.70
2023-01-30T18:07:55.170Z,6.28
2023-01-30T18:10:22.942Z,5.80
2023-01-30T18:12:50.744Z,5.78
2023-01-30T18:15:18.960Z,6.18
2023-01-30T18:17:49.253Z,6.20
2023-01-30T18:20:19.857Z,6.65
2023-01-30T18:22:48.106Z,6.32
2023-01-30T18:25:18.194Z,5.68
2023-01-30T18:27:48.126Z,5.85
2023-01-30T18:30:18.268Z,5.97
2023-01-30T18:32:53.575Z,6.40
2023-01-30T18:35:22.216Z,6.80
2023-01-30T18:37:51.068Z,6.47
2023-01-30T18:40:21.902Z,6.50
2023-01-30T18:42:50.176Z,6.55
2023-01-30T18:45:18.362Z,7.03
2023-01-30T18:47:46.342Z,6.90
2023-01-30T18:50:14.317Z,6.80
2023-01-30T18:52:42.259Z,6.90
2023-01-30T18:55:10.575Z,7.20
2023-01-30T18:57:39.910Z,7.82
2023-01-30T19:00:09.208Z,7.13
2023-01-30T19:02:37.343Z,6.32
2023-01-30T19:05:05.796Z,7.60
2023-01-30T19:07:33.683Z,6.55
2023-01-30T19:10:01.567Z,7.45
2023-01-30T19:12:47.081Z,13.07
2023-01-30T19:15:16.611Z,7.35
2023-01-30T19:17:44.556Z,7.07
2023-01-30T19:20:13.204Z,6.78
2023-01-30T19:22:41.178Z,7.20
2023-01-30T19:25:09.853Z,7.32
2023-01-30T19:27:38.702Z,6.95
2023-01-30T19:30:08.170Z,6.75
2023-01-30T19:32:37.599Z,6.65
2023-01-30T19:35:06.394Z,6.43
2023-01-30T19:37:34.250Z,6.68
2023-01-30T19:40:03.334Z,7.25
2023-01-30T19:42:31.255Z,6.47
2023-01-30T19:45:00.062Z,6.30
2023-01-30T19:47:28.142Z,6.70
2023-01-30T19:49:58.265Z,6.40
2023-01-30T19:52:26.422Z,6.75
2023-01-30T19:54:54.298Z,7.22
2023-01-30T19:57:22.165Z,6.63
2023-01-30T19:59:50.004Z,6.57
2023-01-30T20:02:17.995Z,7.30
2023-01-30T20:04:45.955Z,6.78
2023-01-30T20:07:15.338Z,5.93
2023-01-30T20:09:43.201Z,6.28
2023-01-30T20:12:11.379Z,6.45
2023-01-30T20:14:39.278Z,6.43
2023-01-30T20:17:07.130Z,6.68
2023-01-30T20:19:35.213Z,6.30
2023-01-30T20:22:08.149Z,5.35
2023-01-30T20:24:37.709Z,6.07
2023-01-30T20:27:05.678Z,6.50
2023-01-30T20:29:34.004Z,6.50
2023-01-30T20:32:01.937Z,6.88
2023-01-30T20:34:29.984Z,7.00
2023-01-30T20:36:59.770Z,7.97
2023-01-30T20:39:27.854Z,8.15
2023-01-30T20:41:57.201Z,7.47
2023-01-30T20:44:25.879Z,8.40
2023-01-30T20:46:53.948Z,7.13
2023-01-30T20:49:23.134Z,7.60
2023-01-30T20:51:52.881Z,7.55
2023-01-30T20:54:22.386Z,8.18
2023-01-30T20:56:52.291Z,7.95
2023-01-30T20:59:24.326Z,8.20
2023-01-30T21:01:53.378Z,7.70
2023-01-30T21:04:24.213Z,7.88
2023-01-30T21:06:52.343Z,7.80
2023-01-30T21:09:22.010Z,8.80
2023-01-30T21:11:51.135Z,7.63
2023-01-30T21:14:19.700Z,8.45
2023-01-30T21:16:49.708Z,7.60
2023-01-30T21:19:18.646Z,7.70
2023-01-30T21:21:50.950Z,8.48
2023-01-30T21:24:21.802Z,8.63
2023-01-30T21:26:50.309Z,8.32
2023-01-30T21:29:20.419Z,8.70
2023-01-30T21:31:50.116Z,8.80
2023-01-30T21:34:18.225Z,7.60
2023-01-30T21:37:06.877Z,8.43
2023-01-30T21:39:52.044Z,8.75
2023-01-30T21:42:37.841Z,8.23
2023-01-30T21:45:07.515Z,7.63
2023-01-30T21:47:37.117Z,8.13
2023-01-30T21:50:05.496Z,8.10
2023-01-30T21:52:33.926Z,8.23
2023-01-30T21:55:01.602Z,8.45
2023-01-30T21:57:29.410Z,8.27
2023-01-30T21:59:57.221Z,7.80
2023-01-30T22:02:24.932Z,7.55
2023-01-30T22:04:54.700Z,7.97
2023-01-30T22:07:22.589Z,7.60
2023-01-30T22:09:50.297Z,8.32
2023-01-30T22:12:18.428Z,7.78
2023-01-30T22:14:46.163Z,7.38
2023-01-30T22:17:13.957Z,7.50
2023-01-30T22:19:41.657Z,7.70
2023-01-30T22:22:10.760Z,7.20
2023-01-30T22:24:38.624Z,7.40
2023-01-30T22:27:06.601Z,7.78
2023-01-30T22:29:35.297Z,7.88
2023-01-30T22:32:03.122Z,7.63
2023-01-30T22:34:31.022Z,7.43
2023-01-30T22:36:58.859Z,7.68
2023-01-30T22:39:27.968Z,7.32
2023-01-30T22:41:55.700Z,7.57
2023-01-30T22:44:23.647Z,7.70
2023-01-30T22:46:52.027Z,7.70
2023-01-30T22:49:19.912Z,7.22
2023-01-30T22:51:47.784Z,7.32
2023-01-30T22:54:16.783Z,7.53
2023-01-30T22:56:47.674Z,7.97
2023-01-30T22:59:15.697Z,7.10
2023-01-30T23:01:45.768Z,6.90
2023-01-30T23:04:15.132Z,6.93
2023-01-30T23:06:43.144Z,6.80
2023-01-30T23:09:15.035Z,6.13
2023-01-30T23:12:06.462Z,6.75
2023-01-30T23:14:34.711Z,6.15
2023-01-30T23:17:22.550Z,6.03
2023-01-30T23:19:49.355Z,6.53
2023-01-30T23:22:17.167Z,5.60
2023-01-30T23:24:45.073Z,5.88
2023-01-30T23:27:14.184Z,5.93
2023-01-30T23:29:41.903Z,5.50
2023-01-30T23:32:09.719Z,6.03
2023-01-30T23:34:37.744Z,6.28
2023-01-30T23:37:05.517Z,5.78
2023-01-30T23:39:33.253Z,5.47
2023-01-30T23:42:01.023Z,5.10
2023-01-30T23:44:30.114Z,4.60
2023-01-30T23:46:58.142Z,4.97
2023-01-30T23:49:25.869Z,4.78
2023-01-30T23:51:53.624Z,4.80
2023-01-30T23:54:21.391Z,4.95
2023-01-30T23:56:49.133Z,4.43
2023-01-30T23:59:16.902Z,4.28
